Time;durP1;ratioP1;P1;durP2;ratioP2;P2;SDS_P1;SDS_P2;PMS_P1;PMS_P2;Temp;Humidity;BMP_temperature;BMP_pressure;BME280_temperature;BME280_humidity;BME280_pressure;Samples;Min_cycle;Max_cycle;Signal;HPM_P1;HPM_P2
2022/08/24 00:01:54;;;;;;;18.35;12.60;;;;;;;23.03;83.76;101574.00;5073371;28;20044;-56
2022/08/24 00:04:22;;;;;;;17.38;13.20;;;;;;;23.03;83.89;101579.53;5072162;28;20043;-55
2022/08/24 00:06:51;;;;;;;17.92;13.82;;;;;;;23.00;84.14;101569.09;5055564;28;20069;-52
2022/08/24 00:09:18;;;;;;;20.00;13.05;;;;;;;22.99;84.14;101579.38;5072220;28;20098;-51
2022/08/24 00:11:46;;;;;;;15.13;11.20;;;;;;;23.01;84.12;101581.84;5073735;28;20052;-52
2022/08/24 00:14:15;;;;;;;13.35;10.25;;;;;;;23.03;83.70;101582.31;5073190;28;20029;-51
2022/08/24 00:16:42;;;;;;;18.15;12.88;;;;;;;23.05;83.67;101580.84;5072958;28;20449;-54
2022/08/24 00:19:10;;;;;;;17.55;12.18;;;;;;;23.02;83.95;101586.25;5055074;28;20040;-52
2022/08/24 00:21:38;;;;;;;20.75;13.40;;;;;;;22.98;84.27;101588.88;5055843;28;20403;-52
2022/08/24 00:24:06;;;;;;;20.13;13.32;;;;;;;22.99;84.00;101586.91;5073180;28;20032;-54
2022/08/24 00:26:34;;;;;;;19.15;13.13;;;;;;;23.02;83.96;101586.25;5072021;28;20491;-52
2022/08/24 00:29:02;;;;;;;18.75;13.38;;;;;;;23.04;83.87;101586.72;5055328;28;20052;-52
2022/08/24 00:31:34;;;;;;;17.63;13.63;;;;;;;23.05;84.04;101582.81;5034097;28;20049;-52
2022/08/24 00:34:02;;;;;;;20.52;14.32;;;;;;;23.03;83.97;101596.22;5052801;28;20028;-53
2022/08/24 00:36:30;;;;;;;18.40;13.88;;;;;;;22.98;83.88;101594.44;5051811;28;20112;-53
2022/08/24 00:38:58;;;;;;;18.42;13.88;;;;;;;22.95;84.17;101595.09;5051537;28;20041;-55
2022/08/24 00:41:26;;;;;;;22.15;14.85;;;;;;;22.91;84.45;101600.47;5050690;28;20052;-50
2022/08/24 00:43:57;;;;;;;21.08;15.43;;;;;;;22.88;84.76;101587.25;5051414;28;20376;-54
2022/08/24 00:46:34;;;;;;;18.85;15.15;;;;;;;22.83;84.93;101594.97;5052869;28;20044;-54
2022/08/24 00:49:06;;;;;;;20.15;15.70;;;;;;;22.79;85.35;101596.78;5035105;28;20041;-54
2022/08/24 00:51:40;;;;;;;23.55;15.55;;;;;;;22.73;85.50;101596.97;5050502;28;20407;-55
2022/08/24 00:54:11;;;;;;;18.50;15.35;;;;;;;22.70;85.99;101594.81;5050594;28;20044;-54
2022/08/24 00:56:43;;;;;;;24.13;15.93;;;;;;;22.65;86.19;101592.22;5052608;28;20033;-52
2022/08/24 00:59:15;;;;;;;23.63;16.40;;;;;;;22.63;86.48;101599.28;5051359;28;20102;-53
2022/08/24 01:01:43;;;;;;;24.02;16.58;;;;;;;22.61;86.72;101596.00;5050760;28;20044;-49
2022/08/24 01:04:17;;;;;;;21.63;16.27;;;;;;;22.63;86.54;101602.84;5050216;28;20564;-54
2022/08/24 01:06:46;;;;;;;24.30;16.90;;;;;;;22.62;86.85;101597.66;5051452;28;20048;-54
2022/08/24 01:09:13;;;;;;;22.92;17.25;;;;;;;22.58;87.26;101608.59;5051556;28;20047;-53
2022/08/24 01:11:43;;;;;;;19.73;15.75;;;;;;;22.58;87.29;101599.44;5050292;28;20045;-54
2022/08/24 01:14:11;;;;;;;25.00;17.13;;;;;;;22.62;86.75;101603.19;5052715;28;20045;-51
2022/08/24 01:19:36;;;;;;;22.30;17.15;;;;;;;22.63;87.05;101596.50;5051207;28;20037;-54
2022/08/24 01:22:14;;;;;;;27.80;18.15;;;;;;;22.59;87.15;101599.13;5049948;28;20033;-54
2022/08/24 01:24:43;;;;;;;22.42;17.95;;;;;;;22.56;87.49;101602.53;5021445;28;20040;-52
2022/08/24 01:27:14;;;;;;;25.05;18.27;;;;;;;22.50;88.15;101601.91;5051031;28;20049;-55
2022/08/24 01:29:45;;;;;;;25.08;18.05;;;;;;;22.49;88.31;101600.28;5035284;28;20048;-54
2022/08/24 01:32:13;;;;;;;22.25;17.48;;;;;;;22.49;88.50;101600.28;5053963;28;20048;-56
2022/08/24 01:34:41;;;;;;;22.95;18.10;;;;;;;22.48;88.62;101604.19;5054610;28;20074;-56
2022/08/24 01:37:10;;;;;;;22.67;17.42;;;;;;;22.46;88.80;101598.16;5072110;28;20059;-51
2022/08/24 01:39:43;;;;;;;21.50;17.45;;;;;;;22.46;88.69;101595.38;5054626;28;20055;-51
2022/08/24 01:42:13;;;;;;;21.10;17.48;;;;;;;22.47;88.56;101593.44;5053491;28;20400;-52
2022/08/24 01:44:43;;;;;;;20.77;16.55;;;;;;;22.45;88.41;101599.31;5038455;28;20055;-51
2022/08/24 01:47:13;;;;;;;23.83;17.85;;;;;;;22.44;88.41;101586.59;5042272;28;20041;-52
2022/08/24 01:49:45;;;;;;;21.73;17.65;;;;;;;22.43;88.47;101587.72;5040223;28;20045;-50
2022/08/24 01:52:18;;;;;;;21.65;17.13;;;;;;;22.42;88.67;101583.31;5041533;28;20068;-52
2022/08/24 01:54:46;;;;;;;23.55;17.98;;;;;;;22.40;88.84;101580.06;5057401;28;20040;-54
2022/08/24 01:57:16;;;;;;;23.40;17.40;;;;;;;22.39;88.86;101583.16;5040749;28;20121;-52
2022/08/24 01:59:44;;;;;;;22.45;17.08;;;;;;;22.39;88.63;101591.47;5041417;28;20094;-52
2022/08/24 02:02:26;;;;;;;22.40;17.42;;;;;;;22.40;88.45;101582.84;5040867;28;20521;-53
2022/08/24 02:04:54;;;;;;;23.23;17.45;;;;;;;22.38;88.42;101585.13;5056632;28;20384;-53
2022/08/24 02:07:23;;;;;;;22.52;17.27;;;;;;;22.34;88.56;101584.13;5044115;28;20043;-51
2022/08/24 02:09:51;;;;;;;22.73;15.68;;;;;;;22.31;88.74;101588.41;5041114;28;20419;-54
2022/08/24 02:12:19;;;;;;;25.33;17.20;;;;;;;22.27;88.88;101584.66;5058284;28;20048;-51
2022/08/24 02:14:47;;;;;;;21.17;16.45;;;;;;;22.24;89.13;101590.03;5057287;28;20045;-52
2022/08/24 02:17:17;;;;;;;17.05;14.07;;;;;;;22.22;88.99;101589.56;5075705;28;20029;-56
2022/08/24 02:19:46;;;;;;;17.48;13.70;;;;;;;22.20;88.95;101587.13;5058103;28;20086;-52
2022/08/24 02:22:14;;;;;;;22.85;16.10;;;;;;;22.19;89.06;101579.09;5057002;28;20044;-52
2022/08/24 02:24:42;;;;;;;20.85;16.35;;;;;;;22.13;89.19;101592.31;5056556;28;20036;-52
2022/08/24 02:27:10;;;;;;;20.95;16.77;;;;;;;22.10;89.67;101598.50;5075051;28;20141;-51
2022/08/24 02:29:38;;;;;;;21.88;18.38;;;;;;;22.07;89.66;101593.63;5057458;28;20040;-50
2022/08/24 02:32:06;;;;;;;22.60;16.13;;;;;;;22.06;89.69;101603.91;5040468;28;20514;-51
2022/08/24 02:34:33;;;;;;;21.30;15.98;;;;;;;22.08;89.57;101607.19;5056602;28;20058;-51
2022/08/24 02:37:01;;;;;;;19.40;15.77;;;;;;;22.09;89.52;101617.13;5073722;28;20098;-50
2022/08/24 02:39:29;;;;;;;22.40;16.45;;;;;;;22.12;89.19;101608.13;5056991;28;20063;-50
2022/08/24 02:41:59;;;;;;;19.13;15.57;;;;;;;22.16;88.95;101607.50;5040971;28;20499;-54
2022/08/24 02:44:28;;;;;;;19.63;14.25;;;;;;;22.15;88.81;101605.84;5056887;28;20036;-52
2022/08/24 02:46:56;;;;;;;21.10;14.77;;;;;;;22.13;88.83;101615.34;5055886;28;20048;-53
2022/08/24 02:49:24;;;;;;;21.52;17.30;;;;;;;22.10;88.91;101616.00;5057028;28;20074;-52
2022/08/24 02:51:51;;;;;;;21.52;17.13;;;;;;;22.05;89.57;101616.13;5057456;28;20040;-52
2022/08/24 02:54:21;;;;;;;23.05;18.15;;;;;;;22.01;90.11;101617.97;5057180;28;20048;-52
2022/08/24 02:56:51;;;;;;;22.77;17.38;;;;;;;21.99;90.27;101614.69;5040333;28;20044;-51
2022/08/24 02:59:20;;;;;;;24.20;17.38;;;;;;;22.01;89.77;101617.16;5056734;28;20044;-54
2022/08/24 03:01:49;;;;;;;21.50;17.58;;;;;;;21.98;89.58;101613.03;5039274;28;20408;-52
2022/08/24 03:04:18;;;;;;;22.83;17.27;;;;;;;21.96;89.45;101609.81;5055961;28;20040;-54
2022/08/24 03:06:46;;;;;;;23.08;15.55;;;;;;;21.91;89.31;101608.00;5074142;28;20546;-54
2022/08/24 03:09:15;;;;;;;18.30;15.93;;;;;;;21.92;89.14;101608.81;5039850;28;20044;-51
2022/08/24 03:11:43;;;;;;;21.00;17.08;;;;;;;21.91;89.29;101612.72;5056674;28;20403;-56
2022/08/24 03:14:13;;;;;;;23.63;17.40;;;;;;;21.85;89.36;101603.75;5056256;28;20036;-51
2022/08/24 03:16:41;;;;;;;21.77;15.73;;;;;;;21.81;89.63;101607.50;5056552;28;20406;-51
2022/08/24 03:19:09;;;;;;;21.60;16.38;;;;;;;21.77;89.69;101600.94;5055231;28;20033;-49
2022/08/24 03:21:37;;;;;;;20.52;17.00;;;;;;;21.72;89.99;101601.09;5056984;28;20048;-51
2022/08/24 03:24:05;;;;;;;19.52;14.65;;;;;;;21.68;90.33;101610.09;5056303;28;20032;-53
2022/08/24 03:26:33;;;;;;;18.38;14.05;;;;;;;21.68;90.17;101599.00;5044749;28;20065;-52
2022/08/24 03:29:01;;;;;;;18.92;15.77;;;;;;;21.70;90.31;101601.47;5056419;28;20049;-52
2022/08/24 03:31:31;;;;;;;23.15;17.58;;;;;;;21.67;90.40;101596.53;5052598;28;20458;-54
2022/08/24 03:33:59;;;;;;;19.00;16.33;;;;;;;21.62;90.61;101600.31;5052981;28;20052;-50
2022/08/24 03:36:27;;;;;;;16.88;14.00;;;;;;;21.60;90.75;101597.03;5052010;28;20036;-54
2022/08/24 03:38:55;;;;;;;22.08;16.52;;;;;;;21.62;90.70;101599.47;5052476;28;20507;-57
2022/08/24 03:41:23;;;;;;;18.92;15.68;;;;;;;21.61;90.81;101597.84;5036551;28;20047;-55
2022/08/24 03:43:51;;;;;;;22.20;16.17;;;;;;;21.60;90.73;101596.19;5036473;28;20045;-55
2022/08/24 03:46:29;;;;;;;21.83;16.75;;;;;;;21.58;90.46;101593.75;5051610;28;20151;-56
2022/08/24 03:48:58;;;;;;;22.70;16.63;;;;;;;21.51;90.77;101593.44;5052753;28;20048;-58
2022/08/24 03:51:27;;;;;;;20.58;15.93;;;;;;;21.48;91.08;101594.09;5052709;28;20041;-53
2022/08/24 03:53:57;;;;;;;17.00;13.38;;;;;;;21.50;91.16;101597.31;5052872;28;20037;-53
2022/08/24 03:56:28;;;;;;;22.50;15.65;;;;;;;21.52;91.05;101595.06;5052693;28;20036;-54
2022/08/24 03:58:56;;;;;;;17.67;15.48;;;;;;;21.52;90.88;101600.59;5052049;28;20041;-52
2022/08/24 04:01:27;;;;;;;22.48;17.70;;;;;;;21.51;90.92;101604.53;5051376;28;20106;-57
2022/08/24 04:03:55;;;;;;;24.02;16.60;;;;;;;21.47;91.33;101597.97;5035578;28;20480;-53
2022/08/24 04:06:29;;;;;;;19.27;15.82;;;;;;;21.48;91.01;101599.63;5052504;28;20451;-54
2022/08/24 04:08:57;;;;;;;19.95;15.95;;;;;;;21.49;90.51;101598.47;5030669;28;20048;-53
2022/08/24 04:11:28;;;;;;;18.20;14.23;;;;;;;21.49;89.97;101606.78;5052378;28;20045;-51
2022/08/24 04:13:57;;;;;;;19.88;15.18;;;;;;;21.51;89.80;101603.72;5051810;28;20037;-53
2022/08/24 04:16:25;;;;;;;18.98;15.10;;;;;;;21.54;89.47;101608.59;5053248;28;20419;-52
2022/08/24 04:19:14;;;;;;;21.98;15.20;;;;;;;21.54;89.24;101608.59;5051639;28;20049;-52
2022/08/24 04:21:43;;;;;;;21.00;14.88;;;;;;;21.54;89.21;101609.41;5035775;28;20045;-53
2022/08/24 04:24:12;;;;;;;19.48;15.30;;;;;;;21.54;88.97;101614.97;5052142;28;20059;-54
2022/08/24 04:26:40;;;;;;;18.85;14.45;;;;;;;21.52;89.11;101614.47;5053008;28;20048;-56
2022/08/24 04:29:18;;;;;;;19.63;14.90;;;;;;;21.52;89.20;101613.66;5050792;28;20483;-54
2022/08/24 04:31:52;;;;;;;18.42;13.18;;;;;;;21.52;88.60;101619.19;5051978;28;20061;-56
2022/08/24 04:34:22;;;;;;;19.02;14.57;;;;;;;21.48;88.37;101619.84;5051978;28;20056;-53
2022/08/24 04:36:50;;;;;;;19.55;15.55;;;;;;;21.42;88.22;101623.09;5035456;28;20454;-53
2022/08/24 04:39:18;;;;;;;18.92;15.07;;;;;;;21.38;89.03;101624.81;5049965;28;20403;-55
2022/08/24 04:42:10;;;;;;;19.48;15.00;;;;;;;21.33;89.22;101620.25;5044020;28;20516;-54
2022/08/24 04:44:40;;;;;;;20.73;14.68;;;;;;;21.33;89.02;101624.97;5035284;28;20033;-53
2022/08/24 04:47:08;;;;;;;18.38;13.65;;;;;;;21.31;88.95;101622.56;5051649;28;20047;-52
2022/08/24 04:49:38;;;;;;;18.13;14.02;;;;;;;21.33;88.95;101624.97;5050081;28;20044;-55
2022/08/24 04:52:09;;;;;;;16.42;12.40;;;;;;;21.33;88.70;101630.53;5035173;28;20495;-55
2022/08/24 04:54:38;;;;;;;18.95;13.07;;;;;;;21.34;88.58;101632.19;5035910;28;20041;-55
2022/08/24 04:57:11;;;;;;;17.20;12.38;;;;;;;21.32;88.64;101628.91;5052331;28;20070;-53
2022/08/24 04:59:45;;;;;;;19.02;12.23;;;;;;;21.34;88.41;101626.63;5049851;28;20458;-52
2022/08/24 05:02:13;;;;;;;19.65;12.07;;;;;;;21.33;88.41;101625.78;5041047;28;20394;-53
2022/08/24 05:04:42;;;;;;;18.08;12.35;;;;;;;21.33;88.44;101624.97;5049965;28;20075;-55
2022/08/24 05:07:09;;;;;;;18.15;13.98;;;;;;;21.33;88.65;101628.56;5051275;28;20064;-58
2022/08/24 05:09:40;;;;;;;20.83;14.70;;;;;;;21.33;88.51;101624.97;5051351;28;20041;-54
2022/08/24 05:12:09;;;;;;;17.38;13.68;;;;;;;21.32;88.66;101628.91;5048238;28;20051;-56
2022/08/24 05:14:40;;;;;;;19.38;13.38;;;;;;;21.31;88.66;101628.09;5035454;28;20041;-57
2022/08/24 05:17:08;;;;;;;18.77;13.98;;;;;;;21.33;88.52;101631.34;5051028;28;20044;-55
2022/08/24 05:19:37;;;;;;;18.35;14.15;;;;;;;21.31;88.55;101635.56;5050362;28;20099;-53
2022/08/24 05:22:05;;;;;;;20.33;15.05;;;;;;;21.28;88.81;101631.50;5051017;28;20048;-53
2022/08/24 05:24:32;;;;;;;20.60;13.82;;;;;;;21.28;89.13;101637.84;5053673;28;20044;-57
2022/08/24 05:27:01;;;;;;;16.48;12.88;;;;;;;21.32;88.78;101640.00;5039140;28;20064;-57
2022/08/24 05:29:33;;;;;;;20.58;12.73;;;;;;;21.34;88.83;101646.03;5053934;28;20075;-55
2022/08/24 05:32:01;;;;;;;15.90;12.48;;;;;;;21.32;88.73;101649.13;5054980;28;20064;-54
2022/08/24 05:34:31;;;;;;;19.50;12.55;;;;;;;21.32;89.02;101645.53;5055257;28;20033;-52
2022/08/24 05:36:59;;;;;;;16.58;11.73;;;;;;;21.34;88.92;101654.34;5056692;28;20412;-51
2022/08/24 05:39:37;;;;;;;15.35;11.93;;;;;;;21.35;89.00;101647.66;5053274;28;20086;-49
2022/08/24 05:42:08;;;;;;;20.17;12.18;;;;;;;21.36;89.33;101647.34;5052077;28;20052;-52
2022/08/24 05:44:42;;;;;;;15.30;11.63;;;;;;;21.43;89.22;101649.66;5055068;28;20407;-51
2022/08/24 05:47:11;;;;;;;17.50;11.95;;;;;;;21.46;88.84;101649.84;5054533;28;20040;-51
2022/08/24 05:49:38;;;;;;;18.92;12.15;;;;;;;21.51;88.74;101656.41;5054808;28;20045;-53
2022/08/24 05:52:09;;;;;;;15.88;11.50;;;;;;;21.54;88.64;101656.56;5037846;28;20037;-53
2022/08/24 05:54:37;;;;;;;18.92;11.82;;;;;;;21.58;88.69;101653.97;5053584;28;20044;-51
2022/08/24 05:57:05;;;;;;;18.30;12.60;;;;;;;21.62;88.74;101660.47;5037983;28;20037;-49
2022/08/24 05:59:43;;;;;;;16.15;12.07;;;;;;;21.63;88.61;101657.41;5054210;28;20036;-53
2022/08/24 06:02:16;;;;;;;15.75;12.52;;;;;;;21.66;88.97;101656.75;5054217;28;20399;-53
2022/08/24 06:04:46;;;;;;;16.15;12.45;;;;;;;21.66;89.35;101656.75;5037380;28;20037;-48
2022/08/24 06:07:14;;;;;;;18.23;12.50;;;;;;;21.66;89.32;101662.28;5054299;28;20475;-51
2022/08/24 06:09:47;;;;;;;19.25;14.45;;;;;;;21.67;89.60;101663.09;5053364;28;20430;-50
2022/08/24 06:12:16;;;;;;;21.75;13.93;;;;;;;21.69;89.81;101664.44;5053729;28;20041;-48
2022/08/24 06:14:46;;;;;;;21.00;14.05;;;;;;;21.71;89.89;101664.09;5053513;28;20503;-51
2022/08/24 06:17:18;;;;;;;24.25;15.02;;;;;;;21.74;90.20;101665.41;5053692;28;20037;-50
2022/08/24 06:19:46;;;;;;;22.38;15.52;;;;;;;21.75;91.03;101669.84;5037228;28;20445;-52
2022/08/24 06:22:14;;;;;;;20.38;15.27;;;;;;;21.75;91.04;101661.50;5054968;28;20053;-49
2022/08/24 06:27:28;;;;;;;21.33;15.07;;;;;;;21.79;91.17;101673.56;5054672;28;20423;-55
2022/08/24 06:30:00;;;;;;;19.52;13.48;;;;;;;21.83;90.95;101675.38;5055539;28;20102;-51
2022/08/24 06:32:46;;;;;;;25.48;16.50;;;;;;;21.87;91.48;101672.78;4372601;28;9999924;-50
2022/08/24 06:35:26;;;;;;;26.60;14.80;;;;;;;21.91;90.89;101680.13;5053213;28;20036;-51
2022/08/24 06:37:56;;;;;;;21.02;14.60;;;;;;;21.94;90.57;101675.91;5036578;28;20044;-53
2022/08/24 06:40:25;;;;;;;24.75;16.00;;;;;;;21.97;90.61;101678.00;5062465;28;20513;-52
2022/08/24 06:42:53;;;;;;;20.73;14.73;;;;;;;21.98;90.30;101678.81;5053391;28;20032;-53
2022/08/24 06:45:32;;;;;;;21.70;16.48;;;;;;;22.00;90.88;101679.31;5053804;28;20041;-56
2022/08/24 06:48:03;;;;;;;28.45;15.55;;;;;;;22.02;90.79;101685.38;5037229;28;20045;-54
2022/08/24 06:50:30;;;;;;;25.48;16.33;;;;;;;22.04;91.06;101683.09;5052599;28;20087;-54
2022/08/24 06:52:59;;;;;;;24.40;14.95;;;;;;;22.06;90.42;101687.16;5036907;28;20040;-53
2022/08/24 06:55:29;;;;;;;24.90;16.10;;;;;;;22.08;90.26;101684.91;5037572;28;20041;-52
2022/08/24 06:57:58;;;;;;;21.73;14.10;;;;;;;22.11;90.07;101681.47;5036890;28;20048;-50
2022/08/24 07:00:25;;;;;;;18.95;14.98;;;;;;;22.15;89.67;101678.84;5052401;28;20051;-52
2022/08/24 07:02:53;;;;;;;18.20;12.50;;;;;;;22.18;89.24;101683.75;5051698;28;20048;-54
2022/08/24 07:05:21;;;;;;;23.92;17.17;;;;;;;22.19;89.22;101693.69;5071014;28;20040;-51
2022/08/24 07:08:16;;;;;;;14.60;9.48;;;;;;;22.20;88.95;101691.75;5053691;28;20599;-56
2022/08/24 07:10:44;;;;;;;18.10;13.15;;;;;;;22.24;88.76;101692.75;5052611;28;20067;-56
2022/08/24 07:13:13;;;;;;;23.15;14.60;;;;;;;22.26;88.51;101696.84;5052796;28;20051;-52
2022/08/24 07:15:42;;;;;;;22.63;15.45;;;;;;;22.27;88.03;101686.53;5036477;28;20032;-54
2022/08/24 07:18:14;;;;;;;21.98;16.80;;;;;;;22.29;87.54;101700.94;5036783;28;20533;-51
2022/08/24 07:20:46;;;;;;;59.40;23.30;;;;;;;22.32;87.27;101700.25;5036819;28;20033;-56
2022/08/24 07:23:32;;;;;;;70.05;27.20;;;;;;;22.35;86.97;101705.19;5072864;28;20036;-50
2022/08/24 07:26:13;;;;;;;33.08;16.63;;;;;;;22.36;86.47;101694.88;5056164;28;20065;-47
2022/08/24 07:28:53;;;;;;;57.28;23.52;;;;;;;22.38;86.19;101695.38;5056175;28;20047;-53
2022/08/24 07:31:22;;;;;;;50.50;21.38;;;;;;;22.39;86.00;101697.00;5039521;28;20055;-54
2022/08/24 07:33:57;;;;;;;47.22;20.95;;;;;;;22.40;85.29;101693.91;5055814;28;20036;-58
2022/08/24 07:36:25;;;;;;;32.90;16.33;;;;;;;22.43;84.59;101696.03;5056105;28;20047;-57
2022/08/24 07:38:56;;;;;;;24.02;14.68;;;;;;;22.48;84.13;101695.84;5039522;28;20040;-53
2022/08/24 07:41:25;;;;;;;36.42;17.08;;;;;;;22.51;83.90;101692.44;5038434;28;20040;-55
2022/08/24 07:44:14;;;;;;;39.38;17.75;;;;;;;22.55;83.56;101693.41;5043834;28;20116;-55
2022/08/24 07:46:42;;;;;;;26.05;13.57;;;;;;;22.60;82.97;101695.19;5055338;28;20036;-57
2022/08/24 07:49:12;;;;;;;26.00;14.23;;;;;;;22.63;82.56;101693.72;5053764;28;20049;-56
2022/08/24 07:52:02;;;;;;;26.17;13.60;;;;;;;22.67;81.53;101700.25;5054874;28;20040;-55
2022/08/24 07:54:30;;;;;;;22.90;12.48;;;;;;;22.70;80.87;101688.47;5055465;28;20032;-54
2022/08/24 07:57:01;;;;;;;22.58;13.73;;;;;;;22.74;79.90;101689.47;5055862;28;20043;-54
2022/08/24 07:59:29;;;;;;;22.02;13.35;;;;;;;22.79;79.07;101696.81;5053755;28;20399;-55
2022/08/24 08:01:57;;;;;;;20.73;13.82;;;;;;;22.83;77.90;101690.25;5055843;28;20040;-56
2022/08/24 08:04:26;;;;;;;23.38;12.57;;;;;;;22.87;77.95;101694.00;5054718;28;20048;-56
2022/08/24 08:06:56;;;;;;;15.93;10.93;;;;;;;22.88;77.92;101690.09;5052190;28;20045;-55
2022/08/24 08:09:26;;;;;;;20.02;10.68;;;;;;;22.89;77.70;101697.25;5039064;28;20044;-56
2022/08/24 08:11:54;;;;;;;20.92;11.13;;;;;;;22.92;77.47;101693.84;5038943;28;20045;-53
2022/08/24 08:14:21;;;;;;;22.73;13.38;;;;;;;22.97;76.64;101699.22;5055903;28;20040;-55
2022/08/24 08:16:50;;;;;;;19.85;12.82;;;;;;;23.04;75.71;101697.91;5055530;28;20089;-52
2022/08/24 08:19:18;;;;;;;18.67;10.57;;;;;;;23.08;75.31;101699.69;5059446;28;20052;-54
2022/08/24 08:24:59;;;;;;;17.48;10.10;;;;;;;23.10;75.71;101702.97;5060727;28;20089;-56
2022/08/24 08:27:26;;;;;;;16.13;10.93;;;;;;;23.10;75.89;101704.94;5055335;28;20047;-56
2022/08/24 08:29:54;;;;;;;18.23;9.70;;;;;;;23.09;75.61;101712.47;5037929;28;20048;-56
2022/08/24 08:32:22;;;;;;;15.02;8.98;;;;;;;23.12;75.14;101708.22;5055223;28;20039;-55
2022/08/24 08:34:50;;;;;;;14.65;8.10;;;;;;;23.15;74.90;101711.13;5054928;28;20044;-55
2022/08/24 08:37:18;;;;;;;12.00;7.97;;;;;;;23.20;74.92;101710.13;5055069;28;20475;-54
2022/08/24 08:39:46;;;;;;;20.80;8.50;;;;;;;23.24;74.78;101713.06;5054931;28;20045;-52
2022/08/24 08:42:26;;;;;;;15.75;8.27;;;;;;;23.31;73.55;101713.38;5038543;28;20056;-51
2022/08/24 08:45:15;;;;;;;17.70;7.13;;;;;;;23.39;73.90;101710.53;5054997;28;20036;-57
2022/08/24 08:48:09;;;;;;;14.45;8.20;;;;;;;23.50;73.20;101710.16;5031718;28;20515;-53
2022/08/24 08:50:56;;;;;;;14.18;8.30;;;;;;;23.66;71.57;101708.44;5051694;28;20044;-54
2022/08/24 08:53:46;;;;;;;13.75;7.30;;;;;;;23.69;71.17;101707.78;5071018;28;20392;-55
2022/08/24 08:56:35;;;;;;;13.40;6.43;;;;;;;23.69;70.74;101713.38;5051827;28;20048;-55
2022/08/24 08:59:15;;;;;;;10.05;5.15;;;;;;;23.79;69.11;101707.44;5055372;28;20047;-54
2022/08/24 09:02:03;;;;;;;15.95;5.53;;;;;;;23.87;69.22;101707.72;5057589;28;20145;-53
2022/08/24 09:05:22;;;;;;;11.07;5.38;;;;;;;23.92;69.14;101704.72;5071621;28;20086;-54
2022/08/24 09:08:09;;;;;;;12.70;5.72;;;;;;;23.94;68.96;101708.00;5042551;28;20511;-55
2022/08/24 09:10:53;;;;;;;12.52;6.15;;;;;;;23.92;69.79;101707.50;5043496;28;20048;-51
2022/08/24 09:13:30;;;;;;;16.17;7.40;;;;;;;23.94;70.13;101708.00;5059036;28;20041;-52
2022/08/24 09:16:17;;;;;;;15.13;6.72;;;;;;;24.01;69.41;101713.84;5057771;28;20073;-54
2022/08/24 09:19:12;;;;;;;9.35;5.30;;;;;;;24.03;69.21;101712.34;5058875;28;20045;-53
2022/08/24 09:21:52;;;;;;;10.13;6.05;;;;;;;24.05;68.77;101712.00;5072625;28;20040;-51
2022/08/24 09:24:26;;;;;;;12.68;5.38;;;;;;;24.05;68.73;101703.66;5058530;28;20048;-55
2022/08/24 09:27:26;;;;;;;11.43;4.40;;;;;;;24.05;69.04;101703.66;5057181;28;20033;-53
2022/08/24 09:29:57;;;;;;;10.32;4.95;;;;;;;24.08;67.93;101710.53;5061619;28;20052;-56
2022/08/24 09:32:36;;;;;;;8.27;4.22;;;;;;;24.10;67.68;101706.25;5076570;28;20051;-53
2022/08/24 09:35:09;;;;;;;8.90;3.72;;;;;;;24.14;67.08;101703.59;5022629;28;20055;-56
2022/08/24 09:37:47;;;;;;;10.63;4.40;;;;;;;24.18;67.10;101702.56;5038582;28;20399;-52
2022/08/24 09:40:35;;;;;;;11.02;4.50;;;;;;;24.21;67.38;101709.44;5074989;28;20040;-53
2022/08/24 09:43:52;;;;;;;12.88;5.40;;;;;;;24.26;67.11;101711.19;5073800;28;20756;-54
2022/08/24 09:46:39;;;;;;;8.18;4.70;;;;;;;24.31;67.00;101705.41;4373540;28;10000707;-53
2022/08/24 09:49:32;;;;;;;7.10;4.50;;;;;;;24.39;66.74;101704.53;5072026;28;20044;-52
2022/08/24 09:52:08;;;;;;;8.93;4.70;;;;;;;24.50;65.95;101716.91;5059033;28;20445;-57
2022/08/24 09:54:51;;;;;;;9.48;4.72;;;;;;;24.53;65.29;101710.66;5072295;28;20051;-53
2022/08/24 09:57:57;;;;;;;11.20;4.88;;;;;;;24.50;65.17;101702.19;5065353;28;20040;-52
2022/08/24 10:00:33;;;;;;;4.32;2.90;;;;;;;24.54;63.62;101703.94;5066469;28;20043;-52
2022/08/24 10:03:10;;;;;;;5.70;3.17;;;;;;;24.61;63.32;101707.00;5053907;28;20052;-52
2022/08/24 10:06:06;;;;;;;7.97;3.78;;;;;;;24.66;63.04;101706.78;5071262;28;20040;-51
2022/08/24 10:09:11;;;;;;;9.63;4.07;;;;;;;24.71;63.64;101711.31;5054119;28;20055;-54
2022/08/24 10:11:54;;;;;;;6.90;3.30;;;;;;;24.85;61.64;101708.25;5072454;28;20040;-57
2022/08/24 10:14:51;;;;;;;12.05;3.20;;;;;;;24.92;61.34;101708.50;5053883;28;20043;-52
2022/08/24 10:17:32;;;;;;;7.00;2.97;;;;;;;24.91;61.49;101692.09;5070984;28;20032;-51
2022/08/24 10:20:27;;;;;;;8.25;3.88;;;;;;;24.92;61.41;101699.28;5073507;28;20102;-55
2022/08/24 10:23:01;;;;;;;8.40;3.70;;;;;;;24.88;61.75;101694.41;5045602;28;20111;-51
2022/08/24 10:25:46;;;;;;;7.85;3.33;;;;;;;24.86;61.17;101684.78;5072995;28;20101;-51
2022/08/24 10:28:33;;;;;;;6.95;2.80;;;;;;;24.89;60.37;101686.84;5039046;28;20040;-55
2022/08/24 10:31:08;;;;;;;5.10;2.60;;;;;;;24.94;59.70;101689.41;5074591;28;20503;-52
2022/08/24 10:33:54;;;;;;;6.00;2.50;;;;;;;24.97;59.14;101694.31;5074828;28;20044;-56
2022/08/24 10:36:40;;;;;;;5.32;2.60;;;;;;;25.05;58.45;101682.25;5075072;28;20548;-51
2022/08/24 10:39:41;;;;;;;6.45;2.97;;;;;;;25.14;58.73;101690.53;5073059;28;20504;-51
2022/08/24 10:45:16;;;;;;;6.32;2.30;;;;;;;25.34;56.59;101680.44;5074901;28;20056;-53
2022/08/24 10:48:28;;;;;;;3.85;2.50;;;;;;;25.50;56.69;101680.59;5075251;28;20052;-51
2022/08/24 10:51:15;;;;;;;2.70;2.20;;;;;;;25.53;54.46;101679.06;5067414;28;20041;-52
2022/08/24 10:53:51;;;;;;;6.03;2.72;;;;;;;25.50;55.84;101672.22;5073934;28;20048;-50
2022/08/24 10:56:39;;;;;;;;;;;;;;;25.50;56.64;101677.78;5075683;28;20036;-51
2022/08/24 10:59:18;;;;;;;6.60;2.33;;;;;;;25.50;56.74;101673.03;5057328;28;19920;-53
2022/08/24 11:02:11;;;;;;;4.40;2.30;;;;;;;25.59;56.26;101686.03;5051773;28;20043;-55
2022/08/24 11:04:40;;;;;;;3.65;2.53;;;;;;;25.63;56.49;101673.81;4709727;28;10000576;-53
2022/08/24 11:07:20;;;;;;;9.48;4.03;;;;;;;25.58;55.53;101676.03;5071145;28;20048;-52
2022/08/24 11:09:53;;;;;;;6.53;2.75;;;;;;;25.65;55.36;101665.09;5044356;28;20406;-51
2022/08/24 11:12:23;;;;;;;3.88;2.60;;;;;;;25.67;55.81;101668.38;5070870;28;20748;-52
2022/08/24 11:14:51;;;;;;;5.75;2.65;;;;;;;25.71;55.49;101664.53;5071305;28;20045;-54
2022/08/24 11:17:25;;;;;;;6.43;3.03;;;;;;;25.71;55.83;101667.31;5071310;28;20105;-53
2022/08/24 11:19:53;;;;;;;5.63;2.90;;;;;;;25.75;55.17;101659.03;5070464;28;20040;-52
2022/08/24 11:22:39;;;;;;;7.93;2.80;;;;;;;25.70;56.40;101659.28;5069500;28;20059;-54
2022/08/24 11:25:27;;;;;;;6.85;3.50;;;;;;;25.65;56.43;101662.31;5052764;28;20045;-56
2022/08/24 11:28:09;;;;;;;7.80;3.10;;;;;;;25.67;56.81;101660.00;5052240;28;20453;-53
2022/08/24 11:30:39;;;;;;;8.20;3.10;;;;;;;25.66;56.96;101670.34;5069817;28;20057;-53
2022/08/24 11:33:54;;;;;;;11.13;3.50;;;;;;;25.69;57.10;101658.47;5070386;28;20049;-50
2022/08/24 11:36:28;;;;;;;7.45;3.92;;;;;;;25.67;56.55;101660.00;5046135;28;20048;-51
2022/08/24 11:39:15;;;;;;;6.93;3.75;;;;;;;25.67;56.45;101655.22;5070935;28;20040;-50
2022/08/24 11:42:13;;;;;;;6.82;3.30;;;;;;;25.74;57.63;101649.03;5073713;28;20040;-53
2022/08/24 11:45:11;;;;;;;4.72;3.22;;;;;;;25.85;57.49;101650.16;5071831;28;20048;-53
2022/08/24 11:47:43;;;;;;;6.00;3.30;;;;;;;25.98;56.87;101653.78;5072000;28;20048;-52
2022/08/24 11:50:29;;;;;;;8.50;3.50;;;;;;;26.04;56.83;101657.13;5072612;28;20044;-52
2022/08/24 11:53:15;;;;;;;11.65;3.53;;;;;;;26.17;56.36;101652.31;5073392;28;20078;-50
2022/08/24 11:56:10;;;;;;;9.10;3.75;;;;;;;26.27;55.97;101652.66;5042587;28;20048;-53